Latest Weather Observations for Gold Coast Seaway

IDQ60801

Issued at 2:02 pm EST Sunday 7 February 2016 (issued every 30 minutes, with the page automatically refreshed every 10 minutes)

About weather observations | Map of weather stations | Latest weather observations for QLD | Other Formats
Station Details ID: 040764 Name: GOLD COAST SEAWAY Lat: -27.94 Lon: 153.43 Height: 2.98 m
Data from the previous 72 hours. | See also: Recent months at Gold Coast Seaway
Date/Time
EST
Temp
°C
App
Temp
°C
Dew
Point
Rel
Hum
%
Delta-T
°C
Wind Press
QNH
hPa
Press
MSL
hPa
Rain
since 9 am
mm
Dir
 
Spd
km/h
Gust
km/h
Spd
kts
Gust
kts
07/02:00pm 26.9 26.9 23.8 83 2.1 SSE 30 37 16 20 1013.2 1013.2 0.0
07/01:30pm 25.1 23.9 22.6 86 1.7 SSE 33 41 18 22 1013.4 1013.4 0.0
07/01:00pm 24.9 23.2 22.4 86 1.7 S 35 46 19 25 1013.5 1013.5 0.0
07/12:30pm 25.7 23.3 22.6 83 2.1 SSE 39 48 21 26 1013.5 1013.5 0.0
07/12:00pm 26.3 25.6 24.2 88 1.4 SSE 35 48 19 26 1013.5 1013.5 0.0
07/11:30am 26.0 25.1 23.9 88 1.4 SSE 35 43 19 23 1013.6 1013.6 0.0
07/11:00am 25.0 23.3 23.1 89 1.3 SSE 37 46 20 25 1013.6 1013.6 0.0
07/10:30am 26.3 25.5 23.0 82 2.2 S 32 43 17 23 1013.9 1013.9 0.0
07/10:00am 25.4 24.5 22.9 86 1.7 S 32 41 17 22 1014.1 1014.1 0.0
07/09:30am 24.7 23.3 22.2 86 1.7 S 33 44 18 24 1013.9 1013.9 0.0
07/09:00am 25.0 23.5 24.1 95 0.6 SSE 39 48 21 26 1013.7 1013.7 4.2
07/08:30am 24.1 22.7 22.9 93 0.8 S 35 48 19 26 1013.7 1013.7 4.2
07/08:00am 23.9 22.5 23.0 95 0.6 S 35 48 19 26 1013.5 1013.5 4.2
07/07:30am 23.7 22.8 23.2 97 0.3 S 33 44 18 24 1013.4 1013.4 4.2
07/07:00am 23.1 22.2 22.9 99 0.1 S 32 43 17 23 1013.1 1013.1 4.2
07/06:30am 22.3 21.5 22.3 100 0.0 S 30 39 16 21 1013.0 1013.0 4.2
07/06:00am 22.1 21.6 22.1 100 0.0 S 28 37 15 20 1012.7 1012.7 4.2
07/05:30am 22.1 22.3 22.1 100 0.0 S 24 33 13 18 1012.3 1012.3 4.2
07/05:00am 22.0 22.2 22.0 100 0.0 S 24 30 13 16 1012.1 1012.1 4.2
07/04:30am 21.7 22.1 21.7 100 0.0 S 22 32 12 17 1011.7 1011.7 4.2
07/04:00am 21.7 22.5 21.7 100 0.0 S 20 32 11 17 1011.7 1011.7 4.2
07/03:30am 21.6 20.0 21.6 100 0.0 S 32 41 17 22 1011.6 1011.6 4.2
07/03:00am 22.4 20.7 22.4 100 0.0 S 35 44 19 24 1011.5 1011.5 4.2
07/02:30am 22.6 21.0 22.6 100 0.0 S 35 44 19 24 1011.5 1011.5 4.2
07/02:00am 22.4 22.0 22.4 100 0.0 S 28 33 15 18 1011.3 1011.3 4.2
07/01:30am 22.6 21.6 22.6 100 0.0 S 32 39 17 21 1011.3 1011.3 4.2
07/01:00am 22.6 22.7 22.6 100 0.0 S 26 33 14 18 1011.2 1011.2 4.2
07/12:30am 22.6 22.7 22.6 100 0.0 S 26 33 14 18 1011.5 1011.5 4.2
07/12:00am 22.8 22.3 22.8 100 0.0 SSE 30 35 16 19 1011.9 1011.9 4.2
 
Date/Time
EST
Temp
°C
App
Temp
°C
Dew
Point
Rel
Hum
%
Delta-T
°C
Wind Press
QNH
hPa
Press
MSL
hPa
Rain
since 9 am
mm
Dir
 
Spd
km/h
Gust
km/h
Spd
kts
Gust
kts
06/11:30pm 22.3 23.4 22.3 100 0.0 S 20 30 11 16 1012.7 1012.7 4.2
06/11:00pm 22.6 24.0 22.6 100 0.0 S 19 28 10 15 1013.2 1013.2 4.0
06/10:30pm 22.8 22.3 22.8 100 0.0 S 30 37 16 20 1013.2 1013.2 3.6
06/10:00pm 23.3 24.2 23.3 100 0.0 S 24 37 13 20 1013.1 1013.1 3.2
06/09:30pm 22.9 23.6 22.9 100 0.0 SSE 24 35 13 19 1013.1 1013.1 3.2
06/09:00pm 22.9 23.6 22.9 100 0.0 S 24 43 13 23 1012.9 1012.9 3.0
06/08:30pm 23.3 24.6 23.3 100 0.0 SSE 22 44 12 24 1012.5 1012.5 2.8
06/08:27pm 23.4 23.6 23.4 100 0.0 SSE 28 48 15 26 1012.5 1012.5 2.8
06/08:00pm 23.3 24.2 23.3 100 0.0 SSE 24 41 13 22 1012.1 1012.1 2.8
06/07:30pm 23.1 23.1 23.1 100 0.0 SSE 28 41 15 22 1011.8 1011.8 2.4
06/07:00pm 22.8 19.8 22.8 100 0.0 SE 43 54 23 29 1011.7 1011.7 2.0
06/06:30pm 23.5 20.9 23.5 100 0.0 SSE 43 50 23 27 1011.2 1011.2 1.4
06/06:08pm 23.6 22.2 23.6 100 0.0 SE 37 56 20 30 1011.0 1011.0 1.2
06/06:00pm 23.4 20.5 23.4 100 0.0 SSE 44 56 24 30 1010.8 1010.8 1.2
06/05:30pm 25.2 24.4 25.2 100 0.0 SSE 39 50 21 27 1010.3 1010.3 1.2
06/05:00pm 25.0 24.0 25.0 100 0.0 SSE 39 48 21 26 1010.1 1010.1 1.2
06/04:30pm 24.4 23.5 24.4 100 0.0 SSE 37 48 20 26 1009.8 1009.8 1.2
06/04:00pm 26.2 25.7 25.7 97 0.4 SSE 39 48 21 26 1009.8 1009.8 1.0
06/03:30pm 26.5 25.4 26.0 97 0.4 SSE 43 52 23 28 1009.7 1009.7 1.0
06/03:00pm 25.6 23.7 25.6 100 0.0 SSE 46 59 25 32 1009.8 1009.8 1.0
06/02:52pm 25.6 25.7 25.4 99 0.1 SSE 35 56 19 30 1009.8 1009.8 1.0
06/02:30pm 27.0 26.4 25.6 92 1.0 SSE 39 50 21 27 1010.1 1010.1 1.0
06/02:00pm 26.9 27.2 26.9 100 0.0 SSE 39 46 21 25 1010.2 1010.2 1.0
06/01:30pm 26.6 27.4 26.6 100 0.0 SSE 35 41 19 22 1010.3 1010.3 1.0
06/01:00pm 24.4 22.3 24.4 100 0.0 SE 43 52 23 28 1010.5 1010.5 0.8
06/12:30pm 27.4 28.6 27.1 98 0.2 SE 35 46 19 25 1010.7 1010.7 0.6
06/12:00pm 27.7 27.8 26.1 91 1.1 SE 37 46 20 25 1011.0 1011.0 0.6
06/11:30am 26.7 26.9 26.2 97 0.4 SSE 37 43 20 23 1011.2 1011.2 0.6
06/11:00am 26.6 27.8 26.6 100 0.0 SE 33 43 18 23 1011.3 1011.3 0.4
06/10:30am 26.0 26.1 26.0 100 0.0 SE 37 50 20 27 1011.4 1011.4 0.4
06/10:00am 26.7 27.6 26.7 100 0.0 SE 35 43 19 23 1011.5 1011.5 0.4
06/09:30am 24.4 23.8 24.4 100 0.0 SE 35 46 19 25 1011.5 1011.5 0.4
06/09:19am 24.4 23.5 24.4 100 0.0 SE 37 56 20 30 1011.5 1011.5 0.2
06/09:00am 25.3 24.9 25.3 100 0.0 SE 37 48 20 26 1011.3 1011.3 13.6
06/08:51am 26.3 26.9 26.3 100 0.0 SE 35 43 19 23 1011.3 1011.3 13.6
06/08:30am 24.6 25.1 24.6 100 0.0 S 30 35 16 19 1011.2 1011.2 13.6
06/08:00am 23.9 25.1 23.9 100 0.0 SSE 24 30 13 16 1011.2 1011.2 13.4
06/07:30am 22.9 21.8 22.9 100 0.0 SSE 33 41 18 22 1011.1 1011.1 13.4
06/07:00am 22.3 22.6 22.3 100 0.0 S 24 33 13 18 1011.0 1011.0 11.4
06/06:30am 22.1 22.3 22.1 100 0.0 SSE 24 33 13 18 1010.7 1010.7 10.4
06/06:00am 21.8 20.7 21.8 100 0.0 S 30 46 16 25 1010.2 1010.2 9.8
06/05:58am 21.8 21.1 21.8 100 0.0 S 28 46 15 25 1010.2 1010.2 9.8
06/05:30am 21.6 20.8 21.6 100 0.0 S 28 35 15 19 1009.7 1009.7 7.4
06/05:00am 22.4 20.7 22.4 100 0.0 SSE 35 41 19 22 1009.2 1009.2 5.6
06/04:30am 22.0 20.5 22.0 100 0.0 SSE 33 46 18 25 1009.2 1009.2 5.6
06/04:00am 22.0 19.7 22.0 100 0.0 SSE 37 48 20 26 1009.0 1009.0 2.8
06/03:30am 21.6 20.8 21.6 100 0.0 S 28 35 15 19 1008.8 1008.8 1.4
06/03:00am 21.7 20.2 21.7 100 0.0 S 32 46 17 25 1008.7 1008.7 0.8
06/02:30am 22.0 19.7 22.0 100 0.0 SSE 37 50 20 27 1008.9 1008.9 0.8
06/02:00am 21.9 19.9 21.9 100 0.0 S 35 46 19 25 1009.1 1009.1 0.8
06/01:30am 22.1 18.5 22.1 100 0.0 SSE 44 54 24 29 1009.3 1009.3 0.8
06/01:00am 22.5 21.4 22.5 100 0.0 S 32 39 17 21 1009.3 1009.3 0.2
06/12:30am 22.4 19.6 22.4 100 0.0 S 41 56 22 30 1009.6 1009.6 0.2
06/12:00am 23.2 20.8 23.2 100 0.0 SSE 41 50 22 27 1010.0 1010.0 0.2
 
Date/Time
EST
Temp
°C
App
Temp
°C
Dew
Point
Rel
Hum
%
Delta-T
°C
Wind Press
QNH
hPa
Press
MSL
hPa
Rain
since 9 am
mm
Dir
 
Spd
km/h
Gust
km/h
Spd
kts
Gust
kts
05/11:30pm 23.4 21.9 23.4 100 0.0 S 37 50 20 27 1010.4 1010.4 0.2
05/11:00pm 23.2 21.2 23.2 100 0.0 S 39 48 21 26 1010.6 1010.6 0.2
05/10:30pm 23.1 22.3 23.1 100 0.0 S 32 48 17 26 1010.8 1010.8 0.2
05/10:00pm 22.5 22.6 22.5 100 0.0 S 26 35 14 19 1011.0 1011.0 0.2
05/09:30pm 23.3 22.1 23.3 100 0.0 S 35 48 19 26 1011.1 1011.1 0.2
05/09:00pm 23.5 22.0 23.5 100 0.0 S 37 46 20 25 1011.0 1011.0 0.2
05/08:30pm 23.8 22.1 23.8 100 0.0 SSE 39 50 21 27 1010.6 1010.6 0.2
05/08:00pm 23.5 22.4 23.5 100 0.0 S 35 46 19 25 1010.4 1010.4 0.2
05/07:30pm 23.7 21.5 23.5 99 0.1 S 41 52 22 28 1010.0 1010.0 0.2
05/07:00pm 24.2 20.2 24.0 99 0.1 SSE 52 63 28 34 1009.6 1009.6 0.2
05/06:30pm 24.5 21.7 24.2 98 0.2 SSE 46 61 25 33 1009.3 1009.3 0.2
05/06:00pm 24.5 21.9 24.5 100 0.0 SSE 46 57 25 31 1009.0 1009.0 0.2
05/05:30pm 24.1 21.3 24.1 100 0.0 SSE 46 56 25 30 1008.6 1008.6 0.2
05/05:00pm 25.5 22.6 23.9 91 1.1 SSE 46 57 25 31 1008.3 1008.3 0.2
05/04:30pm 26.1 23.9 24.5 91 1.1 SSE 44 57 24 31 1008.2 1008.2 0.2
05/04:03pm 25.4 24.3 24.7 96 0.5 SSE 39 61 21 33 1008.0 1008.0 0.2
05/04:00pm 25.6 24.8 24.7 95 0.6 SSE 37 50 20 27 1008.0 1008.0 0.2
05/03:30pm 24.6 22.5 24.6 100 0.0 SSE 44 56 24 30 1008.1 1008.1 0.2
05/03:00pm 25.9 22.9 24.5 92 1.0 SSE 48 57 26 31 1008.1 1008.1 0.2
05/02:38pm 26.2 23.8 23.9 87 1.6 SSE 43 61 23 33 1008.1 1008.1 0.2
05/02:30pm 26.2 24.8 24.2 89 1.4 SSE 39 52 21 28 1008.2 1008.2 0.2
05/02:00pm 27.0 28.5 27.0 100 0.0 SSE 33 39 18 21 1008.4 1008.4 0.2
05/01:37pm 26.5 25.8 24.2 87 1.6 SSE 35 59 19 32 1008.6 1008.6 0.2
05/01:30pm 27.8 27.5 24.8 84 2.1 SSE 35 41 19 22 1008.6 1008.6 0.2
05/01:00pm 28.7 29.5 26.5 88 1.6 SSE 35 44 19 24 1008.8 1008.8 0.0
05/12:30pm 26.0 24.7 25.7 98 0.2 SSE 43 56 23 30 1009.2 1009.2 0.0
05/12:13pm 26.0 27.0 24.8 93 0.8 SSE 28 50 15 27 1009.5 1009.5 0.0
05/12:00pm 26.2 25.9 24.8 92 1.0 SSE 35 41 19 22 1009.5 1009.5 0.0
05/11:30am 25.8 24.2 23.3 86 1.7 SSE 37 61 20 33 1009.5 1009.5 0.0
05/11:00am 26.8 26.3 24.5 87 1.6 SSE 35 46 19 25 1009.5 1009.5 0.0
05/10:30am 26.4 26.0 24.1 87 1.6 SSE 33 41 18 22 1009.3 1009.3 0.0
05/10:00am 26.6 26.4 24.1 86 1.7 SSE 32 41 17 22 1009.4 1009.4 0.0
05/09:30am 26.3 25.6 23.6 85 1.8 SSE 33 39 18 21 1009.3 1009.3 0.0
05/09:00am 26.0 25.6 24.0 89 1.4 SSE 33 39 18 21 1009.0 1009.0 2.2
05/08:30am 25.2 24.5 23.6 91 1.1 SSE 33 39 18 21 1008.8 1008.8 2.2
05/08:00am 24.7 24.1 23.3 92 1.0 S 32 41 17 22 1008.7 1008.7 2.2
05/07:30am 24.2 23.7 22.8 92 0.9 S 30 37 16 20 1008.6 1008.6 2.2
05/07:00am 23.8 23.8 23.0 95 0.5 S 28 37 15 20 1008.2 1008.2 2.2
05/06:30am 23.4 22.4 22.6 95 0.5 S 32 41 17 22 1007.8 1007.8 2.2
05/06:00am 23.2 22.8 23.0 99 0.1 S 30 35 16 19 1007.4 1007.4 2.2
05/05:30am 23.1 24.5 22.6 97 0.3 S 19 28 10 15 1007.0 1007.0 2.2
05/05:00am 23.1 23.1 23.1 100 0.0 S 28 37 15 20 1006.6 1006.6 2.2
05/04:30am 23.1 23.8 22.9 99 0.1 S 24 35 13 19 1006.4 1006.4 2.2
05/04:00am 23.1 23.1 23.1 100 0.0 S 28 35 15 19 1006.3 1006.3 2.2
05/03:30am 23.0 23.3 23.0 100 0.0 S 26 33 14 18 1006.2 1006.2 2.2
05/03:00am 23.0 23.3 23.0 100 0.0 S 26 35 14 19 1006.2 1006.2 2.2
05/02:30am 23.1 23.9 23.1 100 0.0 S 24 33 13 18 1006.2 1006.2 2.2
05/02:00am 23.1 23.1 23.1 100 0.0 S 28 35 15 19 1006.4 1006.4 2.2
05/01:30am 23.2 24.8 23.2 100 0.0 S 20 28 11 15 1006.6 1006.6 2.2
05/01:00am 23.1 24.6 23.1 100 0.0 S 20 28 11 15 1007.0 1007.0 2.2
05/12:30am 23.1 25.6 23.1 100 0.0 S 15 22 8 12 1007.5 1007.5 2.2
05/12:00am 22.9 24.3 22.9 100 0.0 S 20 32 11 17 1007.8 1007.8 2.2
 
Date/Time
EST
Temp
°C
App
Temp
°C
Dew
Point
Rel
Hum
%
Delta-T
°C
Wind Press
QNH
hPa
Press
MSL
hPa
Rain
since 9 am
mm
Dir
 
Spd
km/h
Gust
km/h
Spd
kts
Gust
kts
04/11:30pm 22.7 25.0 22.7 100 0.0 S 15 19 8 10 1008.3 1008.3 2.2
04/11:00pm 22.5 25.4 22.5 100 0.0 SSW 11 19 6 10 1008.3 1008.3 2.2
04/10:30pm 22.6 25.9 22.6 100 0.0 SW 9 11 5 6 1008.6 1008.6 2.2
04/10:00pm 22.7 26.7 22.7 100 0.0 SW 6 9 3 5 1008.9 1008.9 2.2
04/09:30pm 22.4 25.6 22.4 100 0.0 S 9 11 5 6 1009.1 1009.1 2.0
04/09:00pm 22.3 24.7 22.3 100 0.0 S 13 15 7 8 1009.0 1009.0 2.0
04/08:30pm 22.4 24.9 22.4 100 0.0 S 13 17 7 9 1008.7 1008.7 1.8
04/08:00pm 22.9 25.6 22.9 100 0.0 S 13 19 7 10 1008.6 1008.6 1.4
04/07:30pm 23.4 25.3 23.4 100 0.0 S 19 26 10 14 1008.3 1008.3 1.2
04/07:00pm 23.7 25.6 23.7 100 0.0 S 20 30 11 16 1008.0 1008.0 1.2
04/06:30pm 23.7 24.4 23.7 100 0.0 SSE 26 30 14 16 1007.5 1007.5 1.2
04/06:00pm 23.7 25.6 23.7 100 0.0 SSE 20 24 11 13 1007.0 1007.0 1.2
04/05:30pm 24.0 25.3 24.0 100 0.0 SSE 24 32 13 17 1006.5 1006.5 1.2
04/05:00pm 23.9 25.0 23.7 99 0.1 SSE 24 32 13 17 1006.3 1006.3 1.2
04/04:30pm 24.1 23.2 23.2 95 0.6 SSE 33 41 18 22 1006.0 1006.0 1.2
04/04:00pm 24.0 22.6 23.0 94 0.7 SSE 35 41 19 22 1005.8 1005.8 1.2
04/03:30pm 24.5 22.3 22.8 90 1.1 SSE 39 46 21 25 1005.6 1005.6 1.2
04/03:00pm 25.2 22.0 22.5 85 1.8 SSE 43 54 23 29 1005.8 1005.8 1.2
04/02:30pm 25.2 23.6 24.0 93 0.8 SSE 39 46 21 25 1005.9 1005.9 1.2

Other Formats:

Comma delimited format used in spreadsheet applications
http://www.bom.gov.au/fwo/IDQ60801/IDQ60801.94580.axf

JavaScript Object Notation format (JSON) in row-major order
http://www.bom.gov.au/fwo/IDQ60801/IDQ60801.94580.json